sensor_id;sensor_type;location;lat;lon;timestamp;temperature;humidity
7234;DHT22;3658;47.992;10.158;2023-03-16T00:02:19;20.90;33.90
7234;DHT22;3658;47.992;10.158;2023-03-16T00:04:46;20.90;33.80
7234;DHT22;3658;47.992;10.158;2023-03-16T00:07:13;20.90;33.80
7234;DHT22;3658;47.992;10.158;2023-03-16T00:09:41;20.90;33.80
7234;DHT22;3658;47.992;10.158;2023-03-16T00:12:11;20.90;33.70
7234;DHT22;3658;47.992;10.158;2023-03-16T00:14:42;20.90;33.60
7234;DHT22;3658;47.992;10.158;2023-03-16T00:17:10;20.90;33.70
7234;DHT22;3658;47.992;10.158;2023-03-16T00:19:44;20.90;33.60
7234;DHT22;3658;47.992;10.158;2023-03-16T00:22:12;20.90;33.60
7234;DHT22;3658;47.992;10.158;2023-03-16T00:24:39;20.90;33.60
7234;DHT22;3658;47.992;10.158;2023-03-16T00:27:08;20.90;33.60
7234;DHT22;3658;47.992;10.158;2023-03-16T00:29:41;20.90;33.60
7234;DHT22;3658;47.992;10.158;2023-03-16T00:32:13;20.90;33.60
7234;DHT22;3658;47.992;10.158;2023-03-16T00:34:41;20.90;33.70
7234;DHT22;3658;47.992;10.158;2023-03-16T00:37:09;20.90;33.60
7234;DHT22;3658;47.992;10.158;2023-03-16T00:39:38;20.80;33.60
7234;DHT22;3658;47.992;10.158;2023-03-16T00:42:06;20.90;33.60
7234;DHT22;3658;47.992;10.158;2023-03-16T00:44:34;20.80;33.40
7234;DHT22;3658;47.992;10.158;2023-03-16T00:47:03;20.80;33.40
7234;DHT22;3658;47.992;10.158;2023-03-16T00:49:31;20.90;33.40
7234;DHT22;3658;47.992;10.158;2023-03-16T00:52:00;20.80;33.30
7234;DHT22;3658;47.992;10.158;2023-03-16T00:54:27;20.80;33.30
7234;DHT22;3658;47.992;10.158;2023-03-16T00:56:54;20.90;33.30
7234;DHT22;3658;47.992;10.158;2023-03-16T00:59:21;20.80;33.30
7234;DHT22;3658;47.992;10.158;2023-03-16T01:01:50;20.80;33.30
7234;DHT22;3658;47.992;10.158;2023-03-16T01:04:19;20.80;33.30
7234;DHT22;3658;47.992;10.158;2023-03-16T01:06:47;20.80;33.30
7234;DHT22;3658;47.992;10.158;2023-03-16T01:09:14;20.80;33.30
7234;DHT22;3658;47.992;10.158;2023-03-16T01:11:41;20.80;33.30
7234;DHT22;3658;47.992;10.158;2023-03-16T01:14:09;20.80;33.30
7234;DHT22;3658;47.992;10.158;2023-03-16T01:16:36;20.80;33.20
7234;DHT22;3658;47.992;10.158;2023-03-16T01:19:04;20.80;33.20
7234;DHT22;3658;47.992;10.158;2023-03-16T01:21:32;20.80;33.20
7234;DHT22;3658;47.992;10.158;2023-03-16T01:24:01;20.80;33.10
7234;DHT22;3658;47.992;10.158;2023-03-16T01:26:29;20.80;33.10
7234;DHT22;3658;47.992;10.158;2023-03-16T01:28:56;20.80;33.10
7234;DHT22;3658;47.992;10.158;2023-03-16T01:31:23;20.80;33.10
7234;DHT22;3658;47.992;10.158;2023-03-16T01:33:50;20.80;33.10
7234;DHT22;3658;47.992;10.158;2023-03-16T01:36:18;20.80;33.10
7234;DHT22;3658;47.992;10.158;2023-03-16T01:38:46;20.80;33.10
7234;DHT22;3658;47.992;10.158;2023-03-16T01:41:14;20.80;33.10
7234;DHT22;3658;47.992;10.158;2023-03-16T01:43:41;20.80;33.10
7234;DHT22;3658;47.992;10.158;2023-03-16T01:46:17;20.80;33.10
7234;DHT22;3658;47.992;10.158;2023-03-16T01:48:53;20.80;33.20
7234;DHT22;3658;47.992;10.158;2023-03-16T01:51:23;20.80;33.20
7234;DHT22;3658;47.992;10.158;2023-03-16T01:53:56;20.80;33.10
7234;DHT22;3658;47.992;10.158;2023-03-16T01:56:25;20.80;33.10
7234;DHT22;3658;47.992;10.158;2023-03-16T01:58:55;20.80;33.10
7234;DHT22;3658;47.992;10.158;2023-03-16T02:01:24;20.80;33.10
7234;DHT22;3658;47.992;10.158;2023-03-16T02:04:01;20.80;33.00
7234;DHT22;3658;47.992;10.158;2023-03-16T02:06:30;20.80;33.00
7234;DHT22;3658;47.992;10.158;2023-03-16T02:08:59;20.80;33.00
7234;DHT22;3658;47.992;10.158;2023-03-16T02:11:26;20.80;33.00
7234;DHT22;3658;47.992;10.158;2023-03-16T02:13:55;20.80;32.90
7234;DHT22;3658;47.992;10.158;2023-03-16T02:16:24;20.80;32.90
7234;DHT22;3658;47.992;10.158;2023-03-16T02:18:51;20.80;32.90
7234;DHT22;3658;47.992;10.158;2023-03-16T02:21:22;20.80;32.90
7234;DHT22;3658;47.992;10.158;2023-03-16T02:23:54;20.80;33.00
7234;DHT22;3658;47.992;10.158;2023-03-16T02:26:26;20.80;33.00
7234;DHT22;3658;47.992;10.158;2023-03-16T02:29:09;20.80;33.00
7234;DHT22;3658;47.992;10.158;2023-03-16T02:31:39;20.80;33.00
7234;DHT22;3658;47.992;10.158;2023-03-16T02:34:06;20.80;32.90
7234;DHT22;3658;47.992;10.158;2023-03-16T02:36:35;20.80;32.90
7234;DHT22;3658;47.992;10.158;2023-03-16T02:39:03;20.80;32.90
7234;DHT22;3658;47.992;10.158;2023-03-16T02:41:31;20.80;32.90
7234;DHT22;3658;47.992;10.158;2023-03-16T02:44:02;20.80;32.80
7234;DHT22;3658;47.992;10.158;2023-03-16T02:46:31;20.70;32.80
7234;DHT22;3658;47.992;10.158;2023-03-16T02:49:04;20.70;32.80
7234;DHT22;3658;47.992;10.158;2023-03-16T02:51:32;20.70;32.70
7234;DHT22;3658;47.992;10.158;2023-03-16T02:53:59;20.80;32.80
7234;DHT22;3658;47.992;10.158;2023-03-16T02:56:26;20.70;32.80
7234;DHT22;3658;47.992;10.158;2023-03-16T02:58:53;20.70;32.80
7234;DHT22;3658;47.992;10.158;2023-03-16T03:01:22;20.70;32.70
7234;DHT22;3658;47.992;10.158;2023-03-16T03:03:49;20.80;32.80
7234;DHT22;3658;47.992;10.158;2023-03-16T03:06:17;20.70;32.70
7234;DHT22;3658;47.992;10.158;2023-03-16T03:08:44;20.70;32.80
7234;DHT22;3658;47.992;10.158;2023-03-16T03:11:11;20.70;32.80
7234;DHT22;3658;47.992;10.158;2023-03-16T03:13:38;20.70;32.80
7234;DHT22;3658;47.992;10.158;2023-03-16T03:16:09;20.70;32.70
7234;DHT22;3658;47.992;10.158;2023-03-16T03:18:36;20.70;32.80
7234;DHT22;3658;47.992;10.158;2023-03-16T03:21:03;20.70;32.80
7234;DHT22;3658;47.992;10.158;2023-03-16T03:23:32;20.70;32.70
7234;DHT22;3658;47.992;10.158;2023-03-16T03:25:59;20.70;32.70
7234;DHT22;3658;47.992;10.158;2023-03-16T03:28:27;20.70;32.60
7234;DHT22;3658;47.992;10.158;2023-03-16T03:30:54;20.70;32.60
7234;DHT22;3658;47.992;10.158;2023-03-16T03:33:22;20.70;32.60
7234;DHT22;3658;47.992;10.158;2023-03-16T03:35:53;20.70;32.50
7234;DHT22;3658;47.992;10.158;2023-03-16T03:38:20;20.70;32.60
7234;DHT22;3658;47.992;10.158;2023-03-16T03:40:49;20.70;32.70
7234;DHT22;3658;47.992;10.158;2023-03-16T03:43:16;20.70;32.60
7234;DHT22;3658;47.992;10.158;2023-03-16T03:45:43;20.70;32.60
7234;DHT22;3658;47.992;10.158;2023-03-16T03:48:10;20.70;32.60
7234;DHT22;3658;47.992;10.158;2023-03-16T03:50:37;20.70;32.60
7234;DHT22;3658;47.992;10.158;2023-03-16T03:53:05;20.70;32.60
7234;DHT22;3658;47.992;10.158;2023-03-16T03:55:32;20.70;32.60
7234;DHT22;3658;47.992;10.158;2023-03-16T03:58:00;20.70;32.70
7234;DHT22;3658;47.992;10.158;2023-03-16T04:00:27;20.70;32.50
7234;DHT22;3658;47.992;10.158;2023-03-16T04:02:54;20.70;32.50
7234;DHT22;3658;47.992;10.158;2023-03-16T04:05:21;20.70;32.50
7234;DHT22;3658;47.992;10.158;2023-03-16T04:07:51;20.70;32.50
7234;DHT22;3658;47.992;10.158;2023-03-16T04:10:22;20.70;32.50
7234;DHT22;3658;47.992;10.158;2023-03-16T04:12:49;20.70;32.50
7234;DHT22;3658;47.992;10.158;2023-03-16T04:15:18;20.70;32.50
7234;DHT22;3658;47.992;10.158;2023-03-16T04:17:46;20.70;32.50
7234;DHT22;3658;47.992;10.158;2023-03-16T04:20:13;20.70;32.50
7234;DHT22;3658;47.992;10.158;2023-03-16T04:22:44;20.70;32.50
7234;DHT22;3658;47.992;10.158;2023-03-16T04:25:12;20.60;32.50
7234;DHT22;3658;47.992;10.158;2023-03-16T04:27:40;20.70;33.20
7234;DHT22;3658;47.992;10.158;2023-03-16T04:30:10;20.70;32.60
7234;DHT22;3658;47.992;10.158;2023-03-16T04:32:39;20.70;32.60
7234;DHT22;3658;47.992;10.158;2023-03-16T04:35:07;20.70;32.50
7234;DHT22;3658;47.992;10.158;2023-03-16T04:37:34;20.70;32.50
7234;DHT22;3658;47.992;10.158;2023-03-16T04:40:01;20.70;32.50
7234;DHT22;3658;47.992;10.158;2023-03-16T04:42:34;20.70;32.50
7234;DHT22;3658;47.992;10.158;2023-03-16T04:45:02;20.70;32.40
7234;DHT22;3658;47.992;10.158;2023-03-16T04:47:29;20.70;32.50
7234;DHT22;3658;47.992;10.158;2023-03-16T04:50:00;20.70;32.40
7234;DHT22;3658;47.992;10.158;2023-03-16T04:52:27;20.70;32.50
7234;DHT22;3658;47.992;10.158;2023-03-16T04:54:54;20.70;32.80
7234;DHT22;3658;47.992;10.158;2023-03-16T04:57:21;20.70;32.90
7234;DHT22;3658;47.992;10.158;2023-03-16T04:59:49;20.70;32.80
7234;DHT22;3658;47.992;10.158;2023-03-16T05:02:16;20.70;32.80
7234;DHT22;3658;47.992;10.158;2023-03-16T05:04:44;20.70;32.90
7234;DHT22;3658;47.992;10.158;2023-03-16T05:07:13;20.70;33.30
7234;DHT22;3658;47.992;10.158;2023-03-16T05:09:40;20.70;33.60
7234;DHT22;3658;47.992;10.158;2023-03-16T05:12:08;20.70;33.80
7234;DHT22;3658;47.992;10.158;2023-03-16T05:14:35;20.80;34.20
7234;DHT22;3658;47.992;10.158;2023-03-16T05:17:02;20.80;34.30
7234;DHT22;3658;47.992;10.158;2023-03-16T05:19:29;20.80;34.40
7234;DHT22;3658;47.992;10.158;2023-03-16T05:21:56;20.80;34.40
7234;DHT22;3658;47.992;10.158;2023-03-16T05:24:24;20.80;34.60
7234;DHT22;3658;47.992;10.158;2023-03-16T05:26:51;20.80;34.60
7234;DHT22;3658;47.992;10.158;2023-03-16T05:29:19;20.80;34.70
7234;DHT22;3658;47.992;10.158;2023-03-16T05:31:46;20.80;34.80
7234;DHT22;3658;47.992;10.158;2023-03-16T05:34:14;20.80;35.50
7234;DHT22;3658;47.992;10.158;2023-03-16T05:36:41;20.80;34.90
7234;DHT22;3658;47.992;10.158;2023-03-16T05:39:09;20.80;35.60
7234;DHT22;3658;47.992;10.158;2023-03-16T05:41:39;20.80;35.00
7234;DHT22;3658;47.992;10.158;2023-03-16T05:44:07;20.80;35.00
7234;DHT22;3658;47.992;10.158;2023-03-16T05:46:34;20.80;35.10
7234;DHT22;3658;47.992;10.158;2023-03-16T05:49:01;20.80;35.10
7234;DHT22;3658;47.992;10.158;2023-03-16T05:51:28;20.80;35.10
7234;DHT22;3658;47.992;10.158;2023-03-16T05:53:56;20.80;35.10
7234;DHT22;3658;47.992;10.158;2023-03-16T05:56:23;20.80;35.10
7234;DHT22;3658;47.992;10.158;2023-03-16T05:58:53;20.80;35.20
7234;DHT22;3658;47.992;10.158;2023-03-16T06:01:20;20.80;35.10
7234;DHT22;3658;47.992;10.158;2023-03-16T06:03:47;20.80;35.10
7234;DHT22;3658;47.992;10.158;2023-03-16T06:06:16;20.80;35.10
7234;DHT22;3658;47.992;10.158;2023-03-16T06:08:43;20.80;35.10
7234;DHT22;3658;47.992;10.158;2023-03-16T06:11:11;20.80;35.10
7234;DHT22;3658;47.992;10.158;2023-03-16T06:13:38;20.80;35.10
7234;DHT22;3658;47.992;10.158;2023-03-16T06:16:07;20.80;35.20
7234;DHT22;3658;47.992;10.158;2023-03-16T06:18:36;20.80;35.20
7234;DHT22;3658;47.992;10.158;2023-03-16T06:21:04;20.80;35.30
7234;DHT22;3658;47.992;10.158;2023-03-16T06:23:31;20.80;35.40
7234;DHT22;3658;47.992;10.158;2023-03-16T06:25:59;20.80;35.40
7234;DHT22;3658;47.992;10.158;2023-03-16T06:28:26;20.80;35.70
7234;DHT22;3658;47.992;10.158;2023-03-16T06:30:53;20.80;35.70
7234;DHT22;3658;47.992;10.158;2023-03-16T06:33:22;20.80;35.70
7234;DHT22;3658;47.992;10.158;2023-03-16T06:35:49;20.80;35.70
7234;DHT22;3658;47.992;10.158;2023-03-16T06:38:17;20.80;35.60
7234;DHT22;3658;47.992;10.158;2023-03-16T06:40:49;20.80;35.60
7234;DHT22;3658;47.992;10.158;2023-03-16T06:43:16;20.90;35.90
7234;DHT22;3658;47.992;10.158;2023-03-16T06:45:43;20.90;35.70
7234;DHT22;3658;47.992;10.158;2023-03-16T06:48:10;20.80;35.60
7234;DHT22;3658;47.992;10.158;2023-03-16T06:50:39;20.90;35.70
7234;DHT22;3658;47.992;10.158;2023-03-16T06:53:06;20.90;35.80
7234;DHT22;3658;47.992;10.158;2023-03-16T06:55:33;20.90;35.70
7234;DHT22;3658;47.992;10.158;2023-03-16T06:58:00;20.90;35.70
7234;DHT22;3658;47.992;10.158;2023-03-16T07:00:28;20.90;35.70
7234;DHT22;3658;47.992;10.158;2023-03-16T07:02:55;20.90;35.70
7234;DHT22;3658;47.992;10.158;2023-03-16T07:05:22;20.90;35.70
7234;DHT22;3658;47.992;10.158;2023-03-16T07:07:50;20.90;35.70
7234;DHT22;3658;47.992;10.158;2023-03-16T07:10:17;20.90;35.60
7234;DHT22;3658;47.992;10.158;2023-03-16T07:12:44;20.90;35.70
7234;DHT22;3658;47.992;10.158;2023-03-16T07:15:12;20.90;35.70
7234;DHT22;3658;47.992;10.158;2023-03-16T07:17:39;20.90;35.70
7234;DHT22;3658;47.992;10.158;2023-03-16T07:20:10;20.90;35.80
7234;DHT22;3658;47.992;10.158;2023-03-16T07:22:37;20.90;35.80
7234;DHT22;3658;47.992;10.158;2023-03-16T07:25:08;20.90;35.70
7234;DHT22;3658;47.992;10.158;2023-03-16T07:27:36;20.90;35.80
7234;DHT22;3658;47.992;10.158;2023-03-16T07:30:04;20.90;35.80
7234;DHT22;3658;47.992;10.158;2023-03-16T07:32:31;20.90;35.90
7234;DHT22;3658;47.992;10.158;2023-03-16T07:34:58;20.90;36.00
7234;DHT22;3658;47.992;10.158;2023-03-16T07:37:26;20.90;36.20
7234;DHT22;3658;47.992;10.158;2023-03-16T07:39:53;20.90;36.30
7234;DHT22;3658;47.992;10.158;2023-03-16T07:42:22;20.90;36.30
7234;DHT22;3658;47.992;10.158;2023-03-16T07:44:49;20.90;36.40
7234;DHT22;3658;47.992;10.158;2023-03-16T07:47:16;20.90;36.30
7234;DHT22;3658;47.992;10.158;2023-03-16T07:49:43;20.90;36.40
7234;DHT22;3658;47.992;10.158;2023-03-16T07:52:10;20.90;36.40
7234;DHT22;3658;47.992;10.158;2023-03-16T07:54:38;20.90;36.40
7234;DHT22;3658;47.992;10.158;2023-03-16T07:57:06;20.90;36.60
7234;DHT22;3658;47.992;10.158;2023-03-16T07:59:34;20.90;36.50
7234;DHT22;3658;47.992;10.158;2023-03-16T08:02:03;20.90;36.50
7234;DHT22;3658;47.992;10.158;2023-03-16T08:04:30;20.90;36.40
7234;DHT22;3658;47.992;10.158;2023-03-16T08:06:57;20.90;36.20
7234;DHT22;3658;47.992;10.158;2023-03-16T08:09:26;20.90;36.80
7234;DHT22;3658;47.992;10.158;2023-03-16T08:11:53;20.90;36.20
7234;DHT22;3658;47.992;10.158;2023-03-16T08:14:20;20.90;36.20
7234;DHT22;3658;47.992;10.158;2023-03-16T08:16:49;20.90;36.10
7234;DHT22;3658;47.992;10.158;2023-03-16T08:19:16;21.00;36.20
7234;DHT22;3658;47.992;10.158;2023-03-16T08:21:45;20.90;36.10
7234;DHT22;3658;47.992;10.158;2023-03-16T08:24:12;20.90;36.20
7234;DHT22;3658;47.992;10.158;2023-03-16T08:26:38;20.90;36.70
7234;DHT22;3658;47.992;10.158;2023-03-16T08:29:05;20.90;36.40
7234;DHT22;3658;47.992;10.158;2023-03-16T08:31:32;20.90;36.40
7234;DHT22;3658;47.992;10.158;2023-03-16T08:34:01;20.90;36.40
7234;DHT22;3658;47.992;10.158;2023-03-16T08:36:30;20.90;36.30
7234;DHT22;3658;47.992;10.158;2023-03-16T08:38:58;20.90;36.20
7234;DHT22;3658;47.992;10.158;2023-03-16T08:41:25;21.00;36.20
7234;DHT22;3658;47.992;10.158;2023-03-16T08:43:55;20.90;36.20
7234;DHT22;3658;47.992;10.158;2023-03-16T08:46:23;20.90;36.10
7234;DHT22;3658;47.992;10.158;2023-03-16T08:48:50;20.90;36.00
7234;DHT22;3658;47.992;10.158;2023-03-16T08:51:21;20.90;35.90
7234;DHT22;3658;47.992;10.158;2023-03-16T08:53:49;21.00;35.90
7234;DHT22;3658;47.992;10.158;2023-03-16T08:56:16;21.00;36.10
7234;DHT22;3658;47.992;10.158;2023-03-16T08:58:44;20.90;35.90
7234;DHT22;3658;47.992;10.158;2023-03-16T09:01:12;20.90;35.90
7234;DHT22;3658;47.992;10.158;2023-03-16T09:03:40;20.90;35.80
7234;DHT22;3658;47.992;10.158;2023-03-16T09:06:08;20.90;35.90
7234;DHT22;3658;47.992;10.158;2023-03-16T09:08:37;20.90;35.90
7234;DHT22;3658;47.992;10.158;2023-03-16T09:11:06;20.90;35.80
7234;DHT22;3658;47.992;10.158;2023-03-16T09:13:34;20.90;35.80
7234;DHT22;3658;47.992;10.158;2023-03-16T09:16:01;20.90;35.80
7234;DHT22;3658;47.992;10.158;2023-03-16T09:18:28;21.00;36.60
7234;DHT22;3658;47.992;10.158;2023-03-16T09:20:57;20.90;35.70
7234;DHT22;3658;47.992;10.158;2023-03-16T09:23:24;21.00;35.80
7234;DHT22;3658;47.992;10.158;2023-03-16T09:25:56;21.00;35.80
7234;DHT22;3658;47.992;10.158;2023-03-16T09:28:23;20.90;35.70
7234;DHT22;3658;47.992;10.158;2023-03-16T09:30:52;20.90;35.70
7234;DHT22;3658;47.992;10.158;2023-03-16T09:33:19;21.00;36.40
7234;DHT22;3658;47.992;10.158;2023-03-16T09:35:46;20.90;35.70
7234;DHT22;3658;47.992;10.158;2023-03-16T09:38:14;21.00;35.80
7234;DHT22;3658;47.992;10.158;2023-03-16T09:40:42;21.00;35.70
7234;DHT22;3658;47.992;10.158;2023-03-16T09:43:25;21.00;35.80
7234;DHT22;3658;47.992;10.158;2023-03-16T09:46:02;21.00;35.80
7234;DHT22;3658;47.992;10.158;2023-03-16T09:48:33;21.00;35.90
7234;DHT22;3658;47.992;10.158;2023-03-16T09:51:04;21.00;35.90
7234;DHT22;3658;47.992;10.158;2023-03-16T09:53:33;21.00;35.90
7234;DHT22;3658;47.992;10.158;2023-03-16T10:03:00;21.00;36.30
7234;DHT22;3658;47.992;10.158;2023-03-16T10:05:30;21.00;36.20
7234;DHT22;3658;47.992;10.158;2023-03-16T10:08:07;21.00;36.00
7234;DHT22;3658;47.992;10.158;2023-03-16T10:10:54;21.00;36.00
7234;DHT22;3658;47.992;10.158;2023-03-16T10:13:33;21.00;35.90
7234;DHT22;3658;47.992;10.158;2023-03-16T10:16:06;21.00;36.00
7234;DHT22;3658;47.992;10.158;2023-03-16T10:18:40;21.00;36.00
7234;DHT22;3658;47.992;10.158;2023-03-16T10:21:13;21.00;36.00
7234;DHT22;3658;47.992;10.158;2023-03-16T10:23:42;21.00;35.90
7234;DHT22;3658;47.992;10.158;2023-03-16T10:26:13;21.00;36.00
7234;DHT22;3658;47.992;10.158;2023-03-16T10:28:41;21.00;36.00
7234;DHT22;3658;47.992;10.158;2023-03-16T10:31:11;21.00;35.00
7234;DHT22;3658;47.992;10.158;2023-03-16T10:33:40;20.90;33.50
7234;DHT22;3658;47.992;10.158;2023-03-16T10:36:22;20.90;32.80
7234;DHT22;3658;47.992;10.158;2023-03-16T10:38:52;20.90;32.20
7234;DHT22;3658;47.992;10.158;2023-03-16T10:41:22;20.90;31.50
7234;DHT22;3658;47.992;10.158;2023-03-16T10:43:52;20.90;30.90
7234;DHT22;3658;47.992;10.158;2023-03-16T10:46:21;20.90;30.60
7234;DHT22;3658;47.992;10.158;2023-03-16T10:48:55;21.00;30.40
7234;DHT22;3658;47.992;10.158;2023-03-16T10:51:26;21.00;30.30
7234;DHT22;3658;47.992;10.158;2023-03-16T10:54:02;21.00;30.20
7234;DHT22;3658;47.992;10.158;2023-03-16T10:56:33;21.00;30.00
7234;DHT22;3658;47.992;10.158;2023-03-16T10:59:12;20.90;29.80
7234;DHT22;3658;47.992;10.158;2023-03-16T11:01:43;20.90;29.30
7234;DHT22;3658;47.992;10.158;2023-03-16T11:04:13;20.90;29.30
7234;DHT22;3658;47.992;10.158;2023-03-16T11:06:48;20.80;29.50
7234;DHT22;3658;47.992;10.158;2023-03-16T11:09:19;20.90;30.00
7234;DHT22;3658;47.992;10.158;2023-03-16T11:11:49;20.80;30.20
7234;DHT22;3658;47.992;10.158;2023-03-16T11:14:20;20.90;30.60
7234;DHT22;3658;47.992;10.158;2023-03-16T11:16:50;20.90;30.90
7234;DHT22;3658;47.992;10.158;2023-03-16T11:19:23;20.90;31.10
7234;DHT22;3658;47.992;10.158;2023-03-16T11:21:53;20.90;31.30
7234;DHT22;3658;47.992;10.158;2023-03-16T11:24:25;20.90;31.00
7234;DHT22;3658;47.992;10.158;2023-03-16T11:26:57;20.80;30.30
7234;DHT22;3658;47.992;10.158;2023-03-16T11:29:30;20.80;29.60
7234;DHT22;3658;47.992;10.158;2023-03-16T11:32:03;20.80;29.10
7234;DHT22;3658;47.992;10.158;2023-03-16T11:34:34;20.80;28.70
7234;DHT22;3658;47.992;10.158;2023-03-16T11:37:09;20.70;28.40
7234;DHT22;3658;47.992;10.158;2023-03-16T11:39:45;20.70;28.40
7234;DHT22;3658;47.992;10.158;2023-03-16T11:42:27;20.70;28.20
7234;DHT22;3658;47.992;10.158;2023-03-16T11:44:59;20.70;28.10
7234;DHT22;3658;47.992;10.158;2023-03-16T11:47:44;20.70;28.00
7234;DHT22;3658;47.992;10.158;2023-03-16T11:50:17;20.70;27.80
7234;DHT22;3658;47.992;10.158;2023-03-16T11:52:54;20.70;27.60
7234;DHT22;3658;47.992;10.158;2023-03-16T11:55:34;20.70;27.50
7234;DHT22;3658;47.992;10.158;2023-03-16T11:58:23;20.60;27.50
7234;DHT22;3658;47.992;10.158;2023-03-16T12:00:58;20.60;27.50
7234;DHT22;3658;47.992;10.158;2023-03-16T12:04:02;20.60;27.20
7234;DHT22;3658;47.992;10.158;2023-03-16T12:06:47;20.70;27.30
7234;DHT22;3658;47.992;10.158;2023-03-16T12:09:42;20.70;27.10
7234;DHT22;3658;47.992;10.158;2023-03-16T12:15:22;20.70;27.80
7234;DHT22;3658;47.992;10.158;2023-03-16T12:17:52;20.80;28.40
7234;DHT22;3658;47.992;10.158;2023-03-16T12:20:24;20.80;28.80
7234;DHT22;3658;47.992;10.158;2023-03-16T12:22:58;20.80;29.00
7234;DHT22;3658;47.992;10.158;2023-03-16T12:25:30;20.80;29.20
7234;DHT22;3658;47.992;10.158;2023-03-16T12:27:59;20.90;29.50
7234;DHT22;3658;47.992;10.158;2023-03-16T12:30:35;20.90;29.70
7234;DHT22;3658;47.992;10.158;2023-03-16T12:33:08;20.90;29.80
7234;DHT22;3658;47.992;10.158;2023-03-16T12:35:42;20.90;30.00
7234;DHT22;3658;47.992;10.158;2023-03-16T12:38:26;20.90;30.10
7234;DHT22;3658;47.992;10.158;2023-03-16T12:41:14;20.90;30.40
7234;DHT22;3658;47.992;10.158;2023-03-16T12:43:54;20.90;30.50
7234;DHT22;3658;47.992;10.158;2023-03-16T12:46:30;20.90;30.70
7234;DHT22;3658;47.992;10.158;2023-03-16T12:49:05;20.90;30.70
7234;DHT22;3658;47.992;10.158;2023-03-16T12:51:34;20.90;30.90
7234;DHT22;3658;47.992;10.158;2023-03-16T12:54:03;20.90;30.90
7234;DHT22;3658;47.992;10.158;2023-03-16T12:56:32;20.90;31.00
7234;DHT22;3658;47.992;10.158;2023-03-16T12:59:01;20.90;31.10
7234;DHT22;3658;47.992;10.158;2023-03-16T13:01:36;20.90;31.10
7234;DHT22;3658;47.992;10.158;2023-03-16T13:04:08;20.90;31.10
7234;DHT22;3658;47.992;10.158;2023-03-16T13:06:40;20.90;31.20
7234;DHT22;3658;47.992;10.158;2023-03-16T13:09:10;20.90;31.20
7234;DHT22;3658;47.992;10.158;2023-03-16T13:11:43;20.90;31.50
7234;DHT22;3658;47.992;10.158;2023-03-16T13:14:29;20.90;31.50
7234;DHT22;3658;47.992;10.158;2023-03-16T13:17:03;20.90;31.50
7234;DHT22;3658;47.992;10.158;2023-03-16T13:19:31;20.90;31.60
7234;DHT22;3658;47.992;10.158;2023-03-16T13:22:16;20.90;31.70
7234;DHT22;3658;47.992;10.158;2023-03-16T13:24:51;20.90;31.70
7234;DHT22;3658;47.992;10.158;2023-03-16T13:27:26;20.90;31.80
7234;DHT22;3658;47.992;10.158;2023-03-16T13:29:56;20.90;31.90
7234;DHT22;3658;47.992;10.158;2023-03-16T13:32:25;20.90;31.80
7234;DHT22;3658;47.992;10.158;2023-03-16T13:34:57;20.90;32.10
7234;DHT22;3658;47.992;10.158;2023-03-16T13:37:27;20.90;32.30
7234;DHT22;3658;47.992;10.158;2023-03-16T13:39:58;21.00;32.40
7234;DHT22;3658;47.992;10.158;2023-03-16T13:42:27;21.00;32.40
7234;DHT22;3658;47.992;10.158;2023-03-16T13:44:56;21.00;32.40
7234;DHT22;3658;47.992;10.158;2023-03-16T13:47:25;21.00;32.50
7234;DHT22;3658;47.992;10.158;2023-03-16T13:49:55;21.00;32.80
7234;DHT22;3658;47.992;10.158;2023-03-16T13:52:25;21.00;32.60
7234;DHT22;3658;47.992;10.158;2023-03-16T13:54:56;21.00;32.50
7234;DHT22;3658;47.992;10.158;2023-03-16T13:57:26;21.00;32.40
7234;DHT22;3658;47.992;10.158;2023-03-16T14:00:01;21.00;32.50
7234;DHT22;3658;47.992;10.158;2023-03-16T14:02:34;21.00;32.70
7234;DHT22;3658;47.992;10.158;2023-03-16T14:05:09;21.00;33.00
7234;DHT22;3658;47.992;10.158;2023-03-16T14:07:37;21.00;32.70
7234;DHT22;3658;47.992;10.158;2023-03-16T14:10:08;21.00;32.80
7234;DHT22;3658;47.992;10.158;2023-03-16T14:12:35;21.00;32.50
7234;DHT22;3658;47.992;10.158;2023-03-16T14:15:04;20.90;32.80
7234;DHT22;3658;47.992;10.158;2023-03-16T14:17:31;20.90;32.90
7234;DHT22;3658;47.992;10.158;2023-03-16T14:19:59;20.90;32.90
7234;DHT22;3658;47.992;10.158;2023-03-16T14:22:30;20.80;32.60
7234;DHT22;3658;47.992;10.158;2023-03-16T14:25:00;20.80;32.40
7234;DHT22;3658;47.992;10.158;2023-03-16T14:27:41;20.80;32.30
7234;DHT22;3658;47.992;10.158;2023-03-16T14:30:15;20.80;32.30
7234;DHT22;3658;47.992;10.158;2023-03-16T14:32:53;20.80;32.30
7234;DHT22;3658;47.992;10.158;2023-03-16T14:35:21;20.80;32.40
7234;DHT22;3658;47.992;10.158;2023-03-16T14:37:51;20.80;32.80
7234;DHT22;3658;47.992;10.158;2023-03-16T14:40:26;20.70;32.90
7234;DHT22;3658;47.992;10.158;2023-03-16T14:42:56;20.80;33.10
7234;DHT22;3658;47.992;10.158;2023-03-16T14:45:28;20.80;33.10
7234;DHT22;3658;47.992;10.158;2023-03-16T14:48:02;20.80;33.00
7234;DHT22;3658;47.992;10.158;2023-03-16T14:50:30;20.80;33.00
7234;DHT22;3658;47.992;10.158;2023-03-16T14:52:58;20.80;33.00
7234;DHT22;3658;47.992;10.158;2023-03-16T14:55:26;20.80;33.10
7234;DHT22;3658;47.992;10.158;2023-03-16T14:57:55;20.70;32.90
7234;DHT22;3658;47.992;10.158;2023-03-16T15:00:22;20.80;33.00
7234;DHT22;3658;47.992;10.158;2023-03-16T15:02:57;20.80;33.10
7234;DHT22;3658;47.992;10.158;2023-03-16T15:05:30;20.80;33.10
7234;DHT22;3658;47.992;10.158;2023-03-16T15:07:57;20.80;33.20
7234;DHT22;3658;47.992;10.158;2023-03-16T15:10:27;20.80;33.10
7234;DHT22;3658;47.992;10.158;2023-03-16T15:12:56;20.80;33.10
7234;DHT22;3658;47.992;10.158;2023-03-16T15:15:38;20.80;33.10
7234;DHT22;3658;47.992;10.158;2023-03-16T15:18:05;20.80;32.90
7234;DHT22;3658;47.992;10.158;2023-03-16T15:20:37;20.80;32.90
7234;DHT22;3658;47.992;10.158;2023-03-16T15:23:13;20.80;33.10
7234;DHT22;3658;47.992;10.158;2023-03-16T15:25:42;20.70;33.00
7234;DHT22;3658;47.992;10.158;2023-03-16T15:28:13;20.70;33.10
7234;DHT22;3658;47.992;10.158;2023-03-16T15:30:40;20.70;33.00
7234;DHT22;3658;47.992;10.158;2023-03-16T15:33:08;20.80;33.10
7234;DHT22;3658;47.992;10.158;2023-03-16T15:35:35;20.80;33.00
7234;DHT22;3658;47.992;10.158;2023-03-16T15:38:06;20.80;33.00
7234;DHT22;3658;47.992;10.158;2023-03-16T15:40:38;20.80;33.10
7234;DHT22;3658;47.992;10.158;2023-03-16T15:43:10;20.80;33.00
7234;DHT22;3658;47.992;10.158;2023-03-16T15:45:38;20.80;33.10
7234;DHT22;3658;47.992;10.158;2023-03-16T15:48:05;20.80;32.90
7234;DHT22;3658;47.992;10.158;2023-03-16T15:50:32;20.80;32.90
7234;DHT22;3658;47.992;10.158;2023-03-16T15:53:03;20.80;32.90
7234;DHT22;3658;47.992;10.158;2023-03-16T15:55:33;20.80;33.10
7234;DHT22;3658;47.992;10.158;2023-03-16T15:58:01;20.90;33.30
7234;DHT22;3658;47.992;10.158;2023-03-16T16:00:32;20.80;33.10
7234;DHT22;3658;47.992;10.158;2023-03-16T16:03:01;20.80;33.00
7234;DHT22;3658;47.992;10.158;2023-03-16T16:05:28;20.80;33.00
7234;DHT22;3658;47.992;10.158;2023-03-16T16:07:56;20.80;33.10
7234;DHT22;3658;47.992;10.158;2023-03-16T16:10:24;20.80;33.40
7234;DHT22;3658;47.992;10.158;2023-03-16T16:12:54;20.80;33.50